Time;durP1;ratioP1;P1;durP2;ratioP2;P2;SDS_P1;SDS_P2;PMS_P1;PMS_P2;Temp;Humidity;BMP_temperature;BMP_pressure;BME280_temperature;BME280_humidity;BME280_pressure;Samples;Min_cycle;Max_cycle;Signal;HPM_P1;HPM_P2
2022/01/30 00:02:16;;;;;;;10.15;2.80;;;21.00;47.70;;;;;;5010298;28;20049;-58
2022/01/30 00:04:42;;;;;;;12.95;3.50;;;21.10;47.60;;;;;;5009661;28;20053;-58
2022/01/30 00:07:07;;;;;;;8.85;2.78;;;21.10;47.60;;;;;;5012731;28;20041;-57
2022/01/30 00:09:33;;;;;;;11.50;3.15;;;21.00;47.40;;;;;;5009734;28;20108;-58
2022/01/30 00:12:02;;;;;;;9.10;3.05;;;21.10;47.20;;;;;;5008265;28;20092;-58
2022/01/30 00:14:31;;;;;;;8.63;2.85;;;21.10;46.90;;;;;;5014811;28;20077;-58
2022/01/30 00:17:04;;;;;;;9.90;3.00;;;21.00;46.70;;;;;;5007305;28;20072;-58
2022/01/30 00:19:39;;;;;;;8.10;2.83;;;21.00;46.40;;;;;;5013140;28;20046;-58
2022/01/30 00:24:48;;;;;;;11.05;2.67;;;21.00;46.10;;;;;;5009892;28;20128;-56
2022/01/30 00:27:19;;;;;;;9.68;3.00;;;21.00;45.60;;;;;;5010666;28;20060;-56
2022/01/30 00:29:44;;;;;;;11.35;2.90;;;21.00;45.30;;;;;;5013259;28;20060;-56
2022/01/30 00:32:10;;;;;;;9.38;2.78;;;21.00;45.10;;;;;;5008356;28;20041;-57
2022/01/30 00:34:36;;;;;;;8.40;3.13;;;20.90;44.90;;;;;;5011494;28;20068;-56
2022/01/30 00:37:03;;;;;;;7.72;2.67;;;20.90;44.80;;;;;;5009852;28;20093;-56
2022/01/30 00:39:28;;;;;;;6.55;2.67;;;20.90;44.60;;;;;;5012877;28;20069;-56
2022/01/30 00:41:54;;;;;;;7.32;2.50;;;20.90;44.50;;;;;;5014261;28;20084;-56
2022/01/30 00:44:19;;;;;;;8.57;3.25;;;20.90;44.50;;;;;;5011287;28;20654;-57
2022/01/30 00:46:46;;;;;;;10.55;2.55;;;20.90;44.50;;;;;;5014123;28;20475;-57
2022/01/30 00:49:12;;;;;;;8.85;3.20;;;20.90;44.50;;;;;;5011907;28;20050;-56
2022/01/30 00:51:37;;;;;;;6.95;2.70;;;20.80;44.40;;;;;;5011780;28;20038;-56
2022/01/30 00:54:04;;;;;;;7.38;2.75;;;20.90;44.50;;;;;;5010432;28;20464;-57
2022/01/30 00:56:30;;;;;;;6.47;2.53;;;20.90;44.40;;;;;;5009031;28;21203;-56
2022/01/30 00:58:55;;;;;;;5.78;2.47;;;20.80;44.20;;;;;;5009419;28;20048;-57
2022/01/30 01:01:21;;;;;;;7.10;2.42;;;20.80;44.20;;;;;;5012784;28;20072;-56
2022/01/30 01:03:46;;;;;;;7.03;3.28;;;20.80;44.00;;;;;;5008937;28;20618;-57
2022/01/30 01:06:12;;;;;;;9.32;3.10;;;20.80;43.80;;;;;;5013102;28;20092;-57
2022/01/30 01:08:58;;;;;;;7.53;2.85;;;20.80;43.80;;;;;;5011026;28;20492;-58
2022/01/30 01:24:42;;;;;;;10.13;3.00;;;20.70;42.90;;;;;;5013567;28;20460;-56
2022/01/30 01:27:07;;;;;;;6.60;2.63;;;20.70;42.70;;;;;;5009140;28;20045;-57
2022/01/30 01:29:33;;;;;;;7.35;2.55;;;20.70;42.60;;;;;;5012069;28;20038;-57
2022/01/30 01:31:58;;;;;;;6.78;2.67;;;20.70;42.40;;;;;;5010977;28;20477;-56
2022/01/30 01:34:33;;;;;;;9.32;3.00;;;20.70;42.40;;;;;;5011662;28;20123;-57
2022/01/30 01:36:59;;;;;;;7.38;2.70;;;20.70;42.20;;;;;;5010139;28;20061;-56
2022/01/30 01:39:25;;;;;;;8.25;3.25;;;20.70;42.10;;;;;;5012534;28;20204;-56
2022/01/30 01:41:51;;;;;;;8.30;2.85;;;20.70;42.10;;;;;;5007345;28;20048;-56
2022/01/30 01:44:20;;;;;;;5.82;2.22;;;20.70;42.00;;;;;;5012702;28;20080;-57
2022/01/30 01:46:47;;;;;;;6.78;2.70;;;20.70;41.90;;;;;;5010626;28;20042;-56
2022/01/30 01:49:19;;;;;;;7.32;2.60;;;20.60;41.80;;;;;;5013447;28;20057;-57
2022/01/30 01:51:50;;;;;;;6.22;2.63;;;20.60;41.70;;;;;;5006558;28;20077;-58
2022/01/30 01:54:16;;;;;;;5.85;2.35;;;20.60;41.60;;;;;;5006357;28;20056;-57
2022/01/30 01:56:41;;;;;;;7.80;2.67;;;20.60;41.50;;;;;;5008335;28;20045;-57
2022/01/30 01:59:07;;;;;;;7.40;2.80;;;20.60;41.40;;;;;;5006701;28;20056;-56
2022/01/30 02:01:32;;;;;;;6.18;2.72;;;20.60;41.40;;;;;;5008207;28;20055;-57
2022/01/30 02:03:58;;;;;;;5.90;2.28;;;20.60;41.40;;;;;;5008539;28;20076;-57
2022/01/30 02:06:26;;;;;;;7.40;2.65;;;20.60;41.30;;;;;;5012837;28;20515;-58
2022/01/30 02:08:59;;;;;;;6.78;2.70;;;20.50;41.20;;;;;;5010367;28;20179;-56
2022/01/30 02:11:38;;;;;;;7.28;2.78;;;20.60;41.20;;;;;;5009908;28;20527;-56
2022/01/30 02:27:24;;;;;;;7.72;2.85;;;20.50;40.90;;;;;;5007151;28;20481;-56
2022/01/30 02:29:51;;;;;;;9.02;3.58;;;20.50;40.80;;;;;;5013076;28;20429;-56
2022/01/30 02:32:17;;;;;;;6.47;2.35;;;20.50;40.80;;;;;;5010317;28;20045;-57
2022/01/30 02:34:42;;;;;;;6.93;2.42;;;20.50;40.80;;;;;;5013156;28;20059;-57
2022/01/30 02:37:08;;;;;;;7.63;2.85;;;20.50;40.70;;;;;;5008908;28;20054;-58
2022/01/30 02:39:34;;;;;;;7.68;3.08;;;20.50;40.80;;;;;;5011635;28;20046;-57
2022/01/30 02:42:00;;;;;;;6.63;2.75;;;20.50;40.70;;;;;;5007877;28;20069;-57
2022/01/30 02:46:56;;;;;;;7.55;3.00;;;20.50;40.70;;;;;;5008498;28;20054;-57
2022/01/30 02:51:54;;;;;;;8.55;3.08;;;20.40;40.50;;;;;;5007338;28;20046;-57
2022/01/30 02:54:20;;;;;;;8.65;2.47;;;20.40;40.40;;;;;;5009168;28;20046;-57
2022/01/30 02:56:46;;;;;;;7.80;2.53;;;20.40;40.40;;;;;;5006250;28;20056;-57
2022/01/30 02:59:12;;;;;;;7.57;2.80;;;20.40;40.40;;;;;;5005807;28;20160;-56
2022/01/30 03:01:38;;;;;;;8.57;2.80;;;20.40;40.30;;;;;;5005213;28;20405;-57
2022/01/30 03:04:04;;;;;;;7.38;2.63;;;20.40;40.40;;;;;;5004231;28;20068;-57
2022/01/30 03:06:30;;;;;;;7.63;2.67;;;20.40;40.30;;;;;;5008359;28;20060;-57
2022/01/30 03:08:56;;;;;;;9.32;2.88;;;20.40;40.30;;;;;;5006649;28;20046;-57
2022/01/30 03:11:21;;;;;;;8.80;2.60;;;20.40;40.30;;;;;;5008547;28;20102;-58
2022/01/30 03:13:47;;;;;;;8.65;3.00;;;20.40;40.20;;;;;;5005852;28;20060;-57
2022/01/30 03:16:13;;;;;;;5.32;2.47;;;20.40;40.20;;;;;;5012416;28;20065;-57
2022/01/30 03:18:40;;;;;;;7.35;2.50;;;20.40;40.90;;;;;;5012221;28;20046;-57
2022/01/30 03:21:06;;;;;;;6.50;2.70;;;20.40;40.20;;;;;;5007268;28;20979;-58
2022/01/30 03:23:36;;;;;;;6.63;2.40;;;20.30;40.10;;;;;;5010477;28;20056;-59
2022/01/30 03:26:02;;;;;;;6.88;2.33;;;20.30;40.10;;;;;;5009265;28;20054;-57
2022/01/30 03:28:28;;;;;;;7.70;2.90;;;20.30;40.10;;;;;;5009252;28;20293;-59
2022/01/30 03:30:59;;;;;;;7.05;2.78;;;20.30;40.10;;;;;;5010652;28;20088;-58
2022/01/30 03:33:25;;;;;;;8.35;3.10;;;20.30;40.20;;;;;;5009167;28;20080;-57
2022/01/30 03:35:50;;;;;;;7.57;2.50;;;20.30;40.10;;;;;;5009621;28;20045;-57
2022/01/30 03:38:16;;;;;;;8.05;3.20;;;20.30;40.30;;;;;;5009048;28;20049;-58
2022/01/30 03:40:44;;;;;;;7.00;2.70;;;20.30;40.10;;;;;;5009380;28;20057;-57
2022/01/30 03:43:10;;;;;;;9.40;3.13;;;20.30;40.10;;;;;;5010177;28;20041;-58
2022/01/30 03:45:36;;;;;;;9.23;2.72;;;20.30;40.10;;;;;;5010389;28;20140;-58
2022/01/30 03:48:03;;;;;;;6.28;2.78;;;20.30;40.10;;;;;;5009146;28;20168;-57
2022/01/30 03:50:29;;;;;;;8.93;2.40;;;20.30;40.10;;;;;;5010066;28;20049;-58
2022/01/30 03:52:54;;;;;;;7.80;2.85;;;20.30;40.10;;;;;;5012066;28;20046;-57
2022/01/30 03:55:21;;;;;;;7.38;2.63;;;20.30;40.10;;;;;;5009993;28;20049;-57
2022/01/30 03:57:47;;;;;;;7.85;2.30;;;20.20;40.00;;;;;;5013962;28;20889;-57
2022/01/30 04:00:13;;;;;;;8.80;2.92;;;20.20;40.00;;;;;;5012876;28;20045;-57
2022/01/30 04:02:39;;;;;;;6.45;2.30;;;20.20;40.00;;;;;;5012755;28;20107;-58
2022/01/30 04:05:04;;;;;;;6.88;2.55;;;20.20;40.00;;;;;;5008506;28;20053;-57
2022/01/30 04:07:34;;;;;;;6.25;2.53;;;20.20;40.00;;;;;;5016221;28;20457;-57
2022/01/30 04:10:00;;;;;;;7.43;2.65;;;20.20;40.00;;;;;;5007497;28;22113;-58
2022/01/30 04:12:26;;;;;;;6.75;2.60;;;20.20;40.00;;;;;;5011051;28;20053;-57
2022/01/30 04:14:52;;;;;;;5.30;2.30;;;20.20;40.00;;;;;;5006348;28;20604;-58
2022/01/30 04:17:19;;;;;;;8.00;2.50;;;20.20;40.10;;;;;;5013423;28;20053;-57
2022/01/30 04:19:45;;;;;;;6.82;2.38;;;20.20;40.00;;;;;;5008260;28;20513;-58
2022/01/30 04:22:11;;;;;;;9.85;3.10;;;20.20;40.00;;;;;;5010907;28;20111;-57
2022/01/30 04:24:37;;;;;;;11.93;2.75;;;20.20;39.90;;;;;;5010143;28;20564;-57
2022/01/30 04:27:03;;;;;;;8.65;2.72;;;20.20;39.90;;;;;;5015873;28;20069;-57
2022/01/30 04:29:29;;;;;;;9.90;2.60;;;20.20;39.90;;;;;;5011138;28;20762;-57
2022/01/30 04:31:55;;;;;;;8.18;2.85;;;20.20;39.80;;;;;;5011083;28;20050;-57
2022/01/30 04:34:21;;;;;;;8.52;2.72;;;20.20;39.80;;;;;;5010729;28;20057;-57
2022/01/30 04:37:01;;;;;;;8.60;3.08;;;20.20;39.70;;;;;;5013229;28;20066;-57
2022/01/30 04:51:58;;;;;;;8.50;2.20;;;20.10;39.80;;;;;;5010672;28;20048;-57
2022/01/30 04:58:54;;;;;;;7.13;2.28;;;20.00;39.90;;;;;;5014843;28;20049;-57
2022/01/30 05:01:38;;;;;;;8.20;2.95;;;20.00;39.90;;;;;;5007069;28;20056;-57
2022/01/30 05:06:41;;;;;;;8.45;2.88;;;20.00;39.90;;;;;;5011931;28;20148;-57
2022/01/30 05:09:07;;;;;;;7.70;2.90;;;20.00;39.80;;;;;;5011482;28;20045;-57
2022/01/30 05:11:33;;;;;;;9.70;3.10;;;20.00;40.60;;;;;;5012779;28;20060;-57
2022/01/30 05:13:59;;;;;;;9.23;3.50;;;20.00;39.90;;;;;;5012789;28;20060;-57
2022/01/30 05:16:24;;;;;;;10.68;3.28;;;20.00;39.80;;;;;;5008753;28;20067;-59
2022/01/30 05:18:50;;;;;;;11.05;3.40;;;20.00;39.70;;;;;;5012752;28;20413;-58
2022/01/30 05:21:17;;;;;;;10.23;3.45;;;20.00;39.70;;;;;;5006331;28;20038;-58
2022/01/30 05:23:43;;;;;;;9.85;3.35;;;20.00;39.70;;;;;;5013532;28;20924;-58
2022/01/30 05:26:09;;;;;;;9.65;3.35;;;20.00;39.60;;;;;;5009468;28;20049;-58
2022/01/30 05:28:35;;;;;;;8.73;3.13;;;20.00;39.50;;;;;;5016700;28;20085;-58
2022/01/30 05:31:01;;;;;;;10.23;3.15;;;20.00;39.40;;;;;;5011385;28;20123;-57
2022/01/30 05:33:27;;;;;;;12.90;3.25;;;20.00;39.40;;;;;;5010975;28;20497;-57
2022/01/30 05:35:52;;;;;;;12.02;4.03;;;20.00;39.30;;;;;;5010742;28;20041;-57
2022/01/30 05:38:18;;;;;;;10.80;3.33;;;20.00;39.30;;;;;;5014480;28;20046;-57
2022/01/30 05:40:44;;;;;;;7.47;2.80;;;20.00;39.20;;;;;;5012121;28;20033;-58
2022/01/30 05:43:10;;;;;;;8.13;3.15;;;20.00;39.10;;;;;;5011616;28;20073;-58
2022/01/30 05:45:40;;;;;;;11.65;3.33;;;20.00;39.10;;;;;;5008624;28;20093;-57
2022/01/30 05:48:16;;;;;;;9.68;3.08;;;20.00;39.00;;;;;;5008396;28;20073;-58
2022/01/30 05:50:43;;;;;;;11.88;3.53;;;20.00;39.00;;;;;;5011267;28;20061;-57
2022/01/30 05:53:09;;;;;;;10.57;3.05;;;20.00;38.90;;;;;;5010969;28;20386;-58
2022/01/30 05:55:34;;;;;;;9.15;3.20;;;20.00;38.80;;;;;;5012973;28;20449;-57
2022/01/30 05:58:00;;;;;;;8.57;3.20;;;20.00;38.80;;;;;;5007696;28;20497;-57
2022/01/30 06:00:26;;;;;;;9.70;3.70;;;20.00;38.80;;;;;;5012669;28;20041;-59
2022/01/30 06:02:52;;;;;;;14.32;3.47;;;20.00;38.70;;;;;;5008469;28;20038;-58
2022/01/30 06:05:20;;;;;;;10.48;3.38;;;20.10;38.70;;;;;;5015503;28;20049;-57
2022/01/30 06:07:52;;;;;;;13.00;3.65;;;20.00;38.70;;;;;;5012245;28;20053;-58
2022/01/30 06:10:19;;;;;;;10.70;3.78;;;20.10;38.70;;;;;;5011716;28;20156;-57
2022/01/30 06:12:45;;;;;;;11.15;3.70;;;20.10;38.70;;;;;;5010569;28;20072;-57
2022/01/30 06:15:11;;;;;;;10.30;3.55;;;20.10;38.60;;;;;;5011545;28;20392;-57
2022/01/30 06:17:36;;;;;;;11.88;3.60;;;20.10;38.50;;;;;;5009788;28;20065;-57
2022/01/30 06:20:03;;;;;;;10.38;3.38;;;20.10;38.50;;;;;;5009085;28;20548;-57
2022/01/30 06:22:28;;;;;;;12.30;3.63;;;20.10;38.50;;;;;;5011379;28;20073;-58
2022/01/30 06:24:54;;;;;;;12.82;4.00;;;20.10;38.50;;;;;;5010516;28;20176;-57
2022/01/30 06:27:19;;;;;;;12.27;3.97;;;20.10;38.50;;;;;;5014365;28;20208;-57
2022/01/30 06:29:45;;;;;;;10.50;3.55;;;20.10;38.40;;;;;;5013572;28;20045;-58
2022/01/30 06:32:11;;;;;;;11.15;3.70;;;20.20;38.40;;;;;;5009835;28;20605;-57
2022/01/30 06:34:37;;;;;;;10.50;3.42;;;20.20;38.40;;;;;;5014230;28;20099;-57
2022/01/30 06:37:02;;;;;;;11.10;3.80;;;20.20;38.30;;;;;;5015250;28;20400;-57
2022/01/30 06:39:28;;;;;;;12.43;3.95;;;20.20;38.30;;;;;;5015723;28;20048;-58
2022/01/30 06:41:53;;;;;;;13.13;3.65;;;20.20;38.30;;;;;;5013195;28;20045;-57
2022/01/30 06:44:19;;;;;;;11.93;4.00;;;20.20;38.20;;;;;;5014124;28;20604;-57
2022/01/30 06:46:45;;;;;;;10.48;3.63;;;20.20;38.20;;;;;;5014145;28;20045;-57
2022/01/30 06:49:10;;;;;;;11.15;3.53;;;20.20;38.20;;;;;;5014775;28;20079;-57
2022/01/30 06:51:36;;;;;;;10.30;3.67;;;20.20;38.20;;;;;;5014384;28;20507;-57
2022/01/30 06:54:02;;;;;;;9.85;3.45;;;20.20;38.20;;;;;;5014751;28;20093;-57
2022/01/30 06:56:27;;;;;;;10.98;4.13;;;20.30;38.30;;;;;;5014720;28;20584;-58
2022/01/30 06:58:56;;;;;;;11.20;4.07;;;20.30;38.40;;;;;;5013681;28;20133;-57
2022/01/30 07:01:25;;;;;;;11.48;3.90;;;20.20;38.20;;;;;;5014477;28;20054;-58
2022/01/30 07:03:52;;;;;;;10.50;3.60;;;20.30;38.40;;;;;;5012210;28;20045;-57
2022/01/30 07:06:18;;;;;;;8.70;3.60;;;20.30;38.40;;;;;;5013967;28;20050;-60
2022/01/30 07:08:43;;;;;;;10.95;3.97;;;20.30;38.30;;;;;;5013018;28;20067;-59
2022/01/30 07:11:09;;;;;;;11.05;3.47;;;20.30;38.40;;;;;;5014597;28;20041;-58
2022/01/30 07:13:34;;;;;;;10.30;3.95;;;20.30;38.40;;;;;;5014169;28;20067;-58
2022/01/30 07:16:00;;;;;;;11.35;4.15;;;20.30;38.30;;;;;;5015134;28;20076;-57
2022/01/30 07:18:26;;;;;;;9.60;3.33;;;20.40;38.40;;;;;;5011872;28;20053;-57
2022/01/30 07:20:51;;;;;;;12.60;5.05;;;20.30;38.40;;;;;;5010794;28;20056;-57
2022/01/30 07:23:17;;;;;;;10.60;3.65;;;20.40;38.40;;;;;;5017136;28;20195;-58
2022/01/30 07:25:44;;;;;;;13.43;4.00;;;20.40;38.40;;;;;;5011760;28;20053;-58
2022/01/30 07:28:09;;;;;;;11.43;4.28;;;20.40;38.40;;;;;;5015705;28;20075;-57
2022/01/30 07:30:36;;;;;;;13.93;4.80;;;20.40;38.30;;;;;;5014172;28;20042;-57
2022/01/30 07:33:05;;;;;;;12.30;4.25;;;20.40;38.30;;;;;;5012378;28;20101;-58
2022/01/30 07:35:33;;;;;;;9.57;4.10;;;20.40;38.30;;;;;;5013794;28;20042;-57
2022/01/30 07:37:58;;;;;;;11.57;4.43;;;20.50;38.30;;;;;;5013180;28;20113;-58
2022/01/30 07:40:24;;;;;;;12.52;4.13;;;20.50;38.30;;;;;;5021047;28;20120;-57
2022/01/30 07:42:50;;;;;;;11.00;3.97;;;20.50;38.30;;;;;;5011111;28;20442;-57
2022/01/30 07:45:15;;;;;;;10.10;3.70;;;20.50;37.60;;;;;;5011986;28;20053;-58
2022/01/30 07:47:41;;;;;;;11.10;4.07;;;20.50;38.20;;;;;;5014340;28;20053;-57
2022/01/30 07:50:07;;;;;;;11.90;3.88;;;20.50;38.10;;;;;;5013700;28;20125;-58
2022/01/30 07:52:32;;;;;;;12.18;4.43;;;20.50;38.10;;;;;;5012395;28;20124;-57
2022/01/30 07:54:58;;;;;;;13.02;4.28;;;20.50;38.20;;;;;;5012488;28;20786;-57
2022/01/30 07:57:24;;;;;;;11.50;3.70;;;20.60;38.20;;;;;;5015413;28;20038;-58
2022/01/30 07:59:49;;;;;;;12.00;4.25;;;20.50;38.00;;;;;;5011185;28;20057;-57
2022/01/30 08:02:15;;;;;;;10.70;3.80;;;20.60;38.10;;;;;;5015639;28;20093;-58
2022/01/30 08:04:40;;;;;;;10.40;3.30;;;20.60;38.00;;;;;;5010435;28;20489;-57
2022/01/30 08:07:06;;;;;;;11.63;4.30;;;20.60;38.10;;;;;;5012339;28;20046;-59
2022/01/30 08:09:32;;;;;;;13.05;4.28;;;20.60;38.10;;;;;;5011842;28;20049;-58
2022/01/30 08:11:58;;;;;;;10.55;4.25;;;20.60;38.00;;;;;;5011710;28;20054;-59
2022/01/30 08:14:23;;;;;;;11.45;4.15;;;20.60;38.00;;;;;;5012425;28;20621;-57
2022/01/30 08:16:49;;;;;;;9.95;3.53;;;20.60;37.90;;;;;;5011684;28;20048;-57
2022/01/30 08:19:15;;;;;;;12.15;4.15;;;20.60;38.00;;;;;;5015367;28;20059;-57
2022/01/30 08:21:41;;;;;;;13.10;3.92;;;20.60;38.00;;;;;;5009200;28;20050;-58
2022/01/30 08:24:07;;;;;;;12.10;4.13;;;20.70;38.00;;;;;;5013484;28;20127;-58
2022/01/30 08:26:32;;;;;;;10.63;3.85;;;20.70;37.90;;;;;;5012712;28;20072;-57
2022/01/30 08:28:58;;;;;;;14.57;4.28;;;20.70;37.90;;;;;;5013881;28;20042;-57
2022/01/30 08:31:23;;;;;;;9.30;3.80;;;20.70;37.90;;;;;;5010022;28;20088;-57
2022/01/30 08:33:49;;;;;;;9.57;4.30;;;20.70;38.00;;;;;;5011846;28;20049;-58
2022/01/30 08:36:15;;;;;;;11.55;4.38;;;20.70;37.90;;;;;;5013022;28;20486;-58
2022/01/30 08:38:40;;;;;;;12.10;4.35;;;20.70;37.90;;;;;;5011706;28;20045;-57
2022/01/30 08:41:06;;;;;;;11.95;4.40;;;20.80;38.00;;;;;;5012941;28;20045;-57
2022/01/30 08:43:32;;;;;;;14.50;4.68;;;20.80;37.90;;;;;;5011633;28;20076;-58
2022/01/30 08:45:59;;;;;;;12.68;4.47;;;20.70;37.80;;;;;;5011357;28;20120;-56
2022/01/30 08:48:25;;;;;;;9.45;4.15;;;20.80;37.80;;;;;;5012819;28;20085;-56
2022/01/30 08:50:51;;;;;;;12.48;4.38;;;20.80;37.90;;;;;;5009483;28;20056;-56
2022/01/30 08:53:17;;;;;;;12.88;4.80;;;20.80;38.50;;;;;;5013082;28;20046;-57
2022/01/30 08:55:43;;;;;;;12.40;4.25;;;20.80;37.80;;;;;;5007438;28;20049;-57
2022/01/30 08:58:09;;;;;;;13.70;4.63;;;20.80;37.90;;;;;;5011183;28;20168;-57
2022/01/30 09:00:36;;;;;;;11.25;4.45;;;20.90;38.20;;;;;;5002555;28;20152;-57
2022/01/30 09:03:04;;;;;;;11.88;4.63;;;20.90;38.30;;;;;;5011595;28;20049;-57
2022/01/30 09:05:30;;;;;;;10.68;4.38;;;20.90;38.50;;;;;;5011410;28;20050;-57
2022/01/30 09:07:57;;;;;;;11.20;4.28;;;20.90;38.50;;;;;;5012835;28;20049;-57
2022/01/30 09:10:23;;;;;;;12.90;4.57;;;20.90;38.70;;;;;;5011714;28;20844;-57
2022/01/30 09:12:48;;;;;;;12.77;4.70;;;21.00;38.80;;;;;;5011149;28;20083;-57
2022/01/30 09:15:16;;;;;;;12.68;4.47;;;21.00;38.80;;;;;;5010196;28;20049;-57
2022/01/30 09:17:43;;;;;;;13.13;4.72;;;21.00;38.80;;;;;;5007208;28;20061;-58
2022/01/30 09:20:10;;;;;;;14.40;4.68;;;21.10;39.00;;;;;;5010971;28;20151;-59
2022/01/30 09:22:36;;;;;;;13.77;4.03;;;21.10;39.00;;;;;;5007824;28;20052;-58
2022/01/30 09:25:03;;;;;;;13.80;5.03;;;21.10;39.00;;;;;;5011813;28;20061;-59
2022/01/30 09:27:29;;;;;;;12.65;4.55;;;21.20;38.90;;;;;;5011375;28;20053;-58
2022/01/30 09:29:55;;;;;;;12.70;4.53;;;21.20;38.80;;;;;;5013637;28;20060;-59
2022/01/30 09:32:20;;;;;;;13.45;4.85;;;21.20;38.70;;;;;;5010066;28;20038;-58
2022/01/30 09:34:46;;;;;;;12.48;4.50;;;21.20;38.80;;;;;;5006624;28;20103;-59
2022/01/30 09:37:11;;;;;;;12.43;4.20;;;21.20;38.80;;;;;;5011630;28;20049;-59
2022/01/30 09:39:38;;;;;;;11.90;4.53;;;21.20;38.70;;;;;;5010088;28;20052;-58
2022/01/30 09:42:04;;;;;;;14.07;4.85;;;21.20;38.90;;;;;;5009544;28;20077;-58
2022/01/30 09:44:34;;;;;;;13.23;4.35;;;21.20;38.80;;;;;;5010850;28;20042;-58
2022/01/30 09:47:00;;;;;;;15.80;4.68;;;21.20;39.00;;;;;;5010247;28;20216;-58
2022/01/30 09:49:29;;;;;;;16.20;5.35;;;21.10;39.00;;;;;;5010698;28;20830;-59
2022/01/30 09:51:55;;;;;;;12.30;4.82;;;21.20;39.20;;;;;;5009930;28;20046;-59
2022/01/30 09:54:22;;;;;;;13.02;5.22;;;21.20;39.10;;;;;;5011328;28;20465;-59
2022/01/30 09:56:48;;;;;;;11.02;4.78;;;21.20;39.20;;;;;;5004786;28;20049;-59
2022/01/30 09:59:14;;;;;;;12.32;5.32;;;21.30;39.20;;;;;;5009718;28;20053;-58
2022/01/30 10:01:39;;;;;;;18.73;5.68;;;21.20;39.10;;;;;;5007611;28;20508;-58
2022/01/30 10:04:06;;;;;;;13.07;5.05;;;21.30;39.20;;;;;;5009169;28;20049;-58
2022/01/30 10:06:50;;;;;;;14.35;5.43;;;21.30;39.30;;;;;;5009461;28;20060;-58
2022/01/30 10:09:24;;;;;;;12.65;4.75;;;21.30;39.50;;;;;;5008882;28;20046;-58
2022/01/30 10:12:00;;;;;;;16.00;5.32;;;21.30;39.40;;;;;;5010287;28;20080;-59
2022/01/30 10:14:26;;;;;;;15.32;4.90;;;21.40;39.50;;;;;;5008142;28;20053;-58
2022/01/30 10:16:52;;;;;;;13.75;4.82;;;21.40;39.40;;;;;;4991649;28;20057;-58
2022/01/30 10:19:21;;;;;;;12.32;4.82;;;21.40;39.50;;;;;;5010155;28;20069;-58
2022/01/30 10:21:48;;;;;;;13.35;5.30;;;21.40;39.60;;;;;;5009134;28;20595;-57
2022/01/30 10:24:36;;;;;;;12.63;5.35;;;21.40;39.80;;;;;;5007949;28;20050;-58
2022/01/30 10:27:21;;;;;;;18.17;5.30;;;21.40;40.30;;;;;;5007166;28;20053;-59
2022/01/30 10:30:05;;;;;;;12.52;4.50;;;21.40;40.50;;;;;;5010316;28;20464;-58
2022/01/30 10:32:32;;;;;;;21.15;5.35;;;21.40;40.80;;;;;;5005483;28;20042;-58
2022/01/30 10:35:04;;;;;;;13.60;4.82;;;21.40;41.30;;;;;;5010063;28;20429;-59
2022/01/30 10:37:30;;;;;;;13.43;5.20;;;21.40;41.90;;;;;;5009519;28;20103;-55
2022/01/30 10:39:59;;;;;;;17.23;5.30;;;21.40;41.80;;;;;;5008561;28;20440;-55
2022/01/30 10:42:46;;;;;;;13.20;4.22;;;21.50;42.20;;;;;;5008764;28;20046;-55
2022/01/30 10:45:23;;;;;;;13.82;4.78;;;21.60;43.10;;;;;;5009751;28;20203;-55
2022/01/30 10:47:49;;;;;;;15.15;4.85;;;21.60;43.30;;;;;;5011336;28;20045;-54
2022/01/30 10:50:18;;;;;;;11.00;4.25;;;21.60;44.00;;;;;;5008012;28;20029;-55
2022/01/30 10:52:52;;;;;;;15.48;4.53;;;21.60;44.30;;;;;;5010086;28;20068;-56
2022/01/30 10:55:40;;;;;;;13.18;4.93;;;21.70;44.70;;;;;;5008126;28;20038;-56
2022/01/30 10:58:09;;;;;;;13.57;4.80;;;21.70;44.60;;;;;;5010542;28;20068;-55
2022/01/30 11:00:46;;;;;;;11.88;4.95;;;21.70;44.50;;;;;;5007677;28;20038;-56
2022/01/30 11:03:34;;;;;;;10.93;3.90;;;21.70;44.30;;;;;;5010102;28;20058;-56
2022/01/30 11:06:00;;;;;;;14.48;4.88;;;21.70;44.40;;;;;;5010858;28;20135;-55
2022/01/30 11:08:29;;;;;;;14.70;4.50;;;21.70;44.40;;;;;;5011136;28;20038;-55
2022/01/30 11:11:07;;;;;;;14.73;4.93;;;21.70;44.30;;;;;;5007002;28;20049;-55
2022/01/30 11:13:33;;;;;;;13.02;4.68;;;21.70;44.40;;;;;;5010789;28;20046;-56
2022/01/30 11:18:49;;;;;;;15.27;4.55;;;21.70;44.30;;;;;;5007393;28;20072;-55
2022/01/30 11:21:21;;;;;;;13.90;4.60;;;21.70;44.20;;;;;;5015940;28;20089;-56
2022/01/30 11:23:49;;;;;;;13.75;4.90;;;21.70;43.90;;;;;;5010798;28;20092;-60
2022/01/30 11:26:14;;;;;;;14.10;5.28;;;21.70;43.50;;;;;;5019185;28;20049;-63
2022/01/30 11:28:41;;;;;;;16.33;4.90;;;21.60;43.40;;;;;;5011398;28;20096;-56
2022/01/30 11:31:06;;;;;;;12.60;5.18;;;21.60;43.10;;;;;;5014315;28;20489;-56
2022/01/30 11:33:34;;;;;;;15.98;4.75;;;21.60;43.10;;;;;;5011021;28;20129;-56
2022/01/30 11:36:00;;;;;;;14.27;4.35;;;21.60;43.30;;;;;;5016587;28;20083;-56
2022/01/30 11:38:26;;;;;;;12.93;4.45;;;21.60;43.60;;;;;;5008209;28;20722;-56
2022/01/30 11:41:18;;;;;;;14.02;5.10;;;21.60;43.40;;;;;;5011736;28;20056;-56
2022/01/30 11:44:17;;;;;;;13.65;4.65;;;21.60;43.40;;;;;;5011933;28;20104;-56
2022/01/30 11:47:03;;;;;;;14.85;5.15;;;21.60;43.50;;;;;;5011707;28;20045;-56
2022/01/30 11:49:55;;;;;;;12.88;5.05;;;21.60;43.60;;;;;;5004582;28;20140;-56
2022/01/30 11:52:41;;;;;;;15.15;5.53;;;21.60;43.80;;;;;;5011059;28;20045;-56
2022/01/30 11:55:40;;;;;;;18.65;4.97;;;21.60;43.70;;;;;;5013143;28;20517;-56
2022/01/30 11:58:06;;;;;;;17.23;4.57;;;21.60;43.70;;;;;;5014025;28;20088;-56
2022/01/30 12:00:46;;;;;;;11.85;4.88;;;21.60;43.70;;;;;;5012420;28;20068;-56
2022/01/30 12:03:51;;;;;;;16.10;5.45;;;21.60;43.80;;;;;;5012890;28;20057;-56
2022/01/30 12:06:19;;;;;;;12.65;5.03;;;21.60;43.70;;;;;;5012395;28;20053;-56
2022/01/30 12:08:50;;;;;;;14.57;4.50;;;21.60;43.70;;;;;;5014241;28;20046;-56
2022/01/30 12:11:36;;;;;;;13.77;4.97;;;21.60;43.60;;;;;;5012720;28;20053;-56
2022/01/30 12:14:04;;;;;;;13.40;5.22;;;21.60;43.50;;;;;;5013813;28;20059;-56
2022/01/30 12:16:45;;;;;;;13.68;4.82;;;21.60;43.50;;;;;;5013854;28;20041;-56
2022/01/30 12:19:13;;;;;;;12.88;5.15;;;21.60;43.50;;;;;;5014734;28;20099;-56
2022/01/30 12:21:39;;;;;;;12.52;4.72;;;21.60;43.40;;;;;;5012141;28;20540;-56
2022/01/30 12:24:25;;;;;;;14.73;4.88;;;21.60;43.30;;;;;;5012055;28;20060;-56
2022/01/30 12:26:53;;;;;;;15.57;5.50;;;21.60;43.30;;;;;;5010782;28;20825;-56
2022/01/30 12:29:41;;;;;;;12.75;4.80;;;21.60;43.30;;;;;;5011585;28;20041;-56
2022/01/30 12:32:22;;;;;;;13.75;4.78;;;21.60;43.30;;;;;;5007470;28;20053;-55
2022/01/30 12:35:00;;;;;;;14.45;4.55;;;21.60;43.20;;;;;;5008459;28;20045;-56
2022/01/30 12:37:28;;;;;;;11.73;4.55;;;21.60;42.90;;;;;;5009322;28;20133;-57
2022/01/30 12:39:54;;;;;;;14.20;4.22;;;21.60;42.80;;;;;;5006894;28;20038;-57
2022/01/30 12:42:21;;;;;;;18.85;5.40;;;21.60;42.60;;;;;;5010121;28;20061;-56
2022/01/30 12:44:48;;;;;;;12.85;5.20;;;21.60;42.70;;;;;;5013571;28;20042;-55
2022/01/30 12:47:15;;;;;;;14.43;4.78;;;21.60;42.50;;;;;;5009352;28;20042;-55
2022/01/30 12:49:52;;;;;;;16.67;5.22;;;21.60;42.50;;;;;;5010871;28;20052;-56
2022/01/30 12:54:56;;;;;;;14.55;5.25;;;21.60;42.40;;;;;;5010994;28;20144;-55
2022/01/30 12:57:23;;;;;;;12.82;4.57;;;21.60;42.40;;;;;;5010453;28;20041;-56
2022/01/30 12:59:53;;;;;;;12.90;4.70;;;21.60;42.30;;;;;;4997406;28;20065;-56
2022/01/30 13:02:20;;;;;;;12.30;4.13;;;21.60;42.20;;;;;;5009749;28;20049;-55
2022/01/30 13:04:46;;;;;;;14.82;5.10;;;21.60;42.20;;;;;;5008660;28;20038;-55
2022/01/30 13:07:13;;;;;;;15.05;5.30;;;21.60;42.20;;;;;;5011733;28;20088;-55
2022/01/30 13:09:38;;;;;;;12.50;4.43;;;21.60;42.20;;;;;;5010942;28;21609;-55
2022/01/30 13:12:15;;;;;;;16.02;4.43;;;21.60;42.10;;;;;;5011317;28;20065;-55
2022/01/30 13:14:44;;;;;;;15.10;5.20;;;21.60;42.00;;;;;;5010929;28;20069;-56
2022/01/30 13:17:10;;;;;;;13.57;4.43;;;21.60;41.80;;;;;;5011404;28;20722;-55
2022/01/30 13:19:37;;;;;;;15.25;4.97;;;21.60;41.60;;;;;;5007166;28;20064;-55
2022/01/30 13:22:06;;;;;;;11.43;4.65;;;21.60;41.60;;;;;;5009128;28;20076;-56
2022/01/30 13:24:32;;;;;;;14.27;4.72;;;21.60;41.50;;;;;;5007178;28;20531;-56
2022/01/30 13:27:02;;;;;;;13.52;4.18;;;21.60;41.50;;;;;;5012258;28;20050;-55
2022/01/30 13:29:31;;;;;;;15.57;4.85;;;21.60;41.60;;;;;;5011734;28;20104;-55
2022/01/30 13:31:57;;;;;;;13.98;4.50;;;21.60;41.50;;;;;;5006972;28;20407;-55
2022/01/30 13:34:29;;;;;;;9.88;4.15;;;21.70;41.60;;;;;;5009164;28;20094;-55
2022/01/30 13:37:05;;;;;;;13.73;4.95;;;21.60;41.60;;;;;;5011653;28;20160;-56
2022/01/30 13:46:53;;;;;;;17.02;4.45;;;21.60;42.00;;;;;;5011090;28;20053;-55
2022/01/30 13:48:06;;;;;;;12.65;4.82;;;21.60;42.10;;;;;;5007677;28;20056;-55
2022/01/30 13:50:39;;;;;;;9.30;4.38;;;21.60;42.20;;;;;;5011194;28;20060;-56
2022/01/30 13:53:18;;;;;;;16.08;4.95;;;21.60;42.50;;;;;;5009119;28;20077;-56